createdAt,value
2023-04-30T00:04:04.137Z,18
2023-04-30T00:14:03.844Z,17
2023-04-30T00:24:03.795Z,18
2023-04-30T00:34:03.659Z,16
2023-04-30T00:44:03.699Z,13
2023-04-30T00:54:03.662Z,2
2023-04-30T01:04:03.441Z,1
2023-04-30T01:14:03.434Z,1
2023-04-30T01:24:03.349Z,1
2023-04-30T01:34:03.267Z,6
2023-04-30T01:44:03.240Z,3
2023-04-30T01:54:03.295Z,1
2023-04-30T02:04:03.176Z,11
2023-04-30T02:14:02.997Z,6
2023-04-30T02:24:03.006Z,4
2023-04-30T02:34:02.888Z,20
2023-04-30T02:44:02.785Z,14
2023-04-30T02:54:02.766Z,17
2023-04-30T03:04:02.664Z,17
2023-04-30T03:14:02.613Z,12
2023-04-30T03:24:02.575Z,12
2023-04-30T03:34:02.619Z,16
2023-04-30T03:44:02.349Z,30
2023-04-30T03:54:02.319Z,37
2023-04-30T04:04:02.441Z,43
2023-04-30T04:14:02.127Z,55
2023-04-30T04:24:02.222Z,71
2023-04-30T04:34:02.041Z,80
2023-04-30T04:44:02.154Z,86
2023-04-30T04:54:01.871Z,97
2023-04-30T05:04:02.125Z,99
2023-04-30T05:14:01.661Z,99
2023-04-30T05:24:01.581Z,99
2023-04-30T05:34:01.582Z,99
2023-04-30T05:44:01.475Z,99
2023-04-30T05:54:01.463Z,99
2023-04-30T06:04:01.390Z,99
2023-04-30T06:14:01.256Z,99
2023-04-30T06:24:01.258Z,99
2023-04-30T06:34:01.072Z,99
2023-04-30T06:44:01.093Z,99
2023-04-30T06:54:01.135Z,99
2023-04-30T07:04:00.945Z,99
2023-04-30T07:14:00.877Z,99
2023-04-30T07:24:00.803Z,99
2023-04-30T07:34:00.655Z,99
2023-04-30T07:44:00.592Z,99
2023-04-30T07:54:00.515Z,1
2023-04-30T08:04:00.578Z,1
2023-04-30T08:14:00.443Z,1
2023-04-30T08:24:00.295Z,1
2023-04-30T08:34:00.211Z,1
2023-04-30T08:44:00.221Z,1
2023-04-30T08:54:00.143Z,1
2023-04-30T09:04:00.203Z,1
2023-04-30T09:13:59.904Z,1
2023-04-30T09:23:59.906Z,1
2023-04-30T09:33:59.788Z,1
2023-04-30T09:43:59.782Z,1
2023-04-30T09:53:59.624Z,1
2023-04-30T10:03:59.656Z,1
2023-04-30T10:13:59.496Z,1
2023-04-30T10:23:59.490Z,1
2023-04-30T10:33:59.434Z,1
2023-04-30T10:44:01.216Z,1
2023-04-30T10:53:59.238Z,1
2023-04-30T11:03:59.487Z,1
2023-04-30T11:13:59.581Z,1
2023-04-30T11:23:59.682Z,1
2023-04-30T11:33:58.880Z,1
2023-04-30T11:43:58.881Z,1
2023-04-30T11:53:58.741Z,1
2023-04-30T12:03:59.027Z,1
2023-04-30T12:13:58.607Z,1
2023-04-30T12:23:58.583Z,1
2023-04-30T12:33:58.483Z,1
2023-04-30T12:43:58.375Z,1
2023-04-30T12:53:58.367Z,1
2023-04-30T13:03:58.497Z,1
2023-04-30T13:13:58.231Z,1
2023-04-30T13:23:59.741Z,1
2023-04-30T13:33:58.139Z,1
2023-04-30T13:43:58.015Z,1
2023-04-30T13:53:57.922Z,1
2023-04-30T14:03:57.870Z,1
2023-04-30T14:13:57.712Z,1
2023-04-30T14:23:57.797Z,1
2023-04-30T14:33:57.669Z,1
2023-04-30T14:43:57.675Z,1
2023-04-30T14:53:57.774Z,1
2023-04-30T15:03:57.563Z,1
2023-04-30T15:13:57.391Z,1
2023-04-30T15:23:57.400Z,1
2023-04-30T15:33:57.240Z,1
2023-04-30T15:43:57.191Z,1
2023-04-30T15:53:57.167Z,1
2023-04-30T16:03:57.191Z,1
2023-04-30T16:13:57.026Z,1
2023-04-30T16:23:56.921Z,1
2023-04-30T16:33:56.902Z,1
2023-04-30T16:43:56.766Z,1
2023-04-30T16:53:56.737Z,1
2023-04-30T17:03:56.703Z,1
2023-04-30T17:13:56.537Z,1
2023-04-30T17:23:56.446Z,1
2023-04-30T17:33:56.480Z,1
2023-04-30T17:43:56.285Z,1
2023-04-30T17:53:56.119Z,1
2023-04-30T18:03:56.197Z,1
2023-04-30T18:13:56.053Z,1
2023-04-30T18:23:55.957Z,1
2023-04-30T18:33:55.922Z,1
2023-04-30T18:43:55.769Z,1
2023-04-30T18:53:55.687Z,1
2023-04-30T19:03:55.787Z,1
2023-04-30T19:13:55.544Z,1
2023-04-30T19:23:55.483Z,1
2023-04-30T19:33:55.508Z,1
2023-04-30T19:43:55.385Z,1
2023-04-30T19:53:55.268Z,1
2023-04-30T20:03:55.407Z,1
2023-04-30T20:13:55.162Z,1
2023-04-30T20:23:55.121Z,1
2023-04-30T20:33:55.031Z,1
2023-04-30T20:43:54.966Z,1
2023-04-30T20:53:54.899Z,1
2023-04-30T21:03:54.809Z,1
2023-04-30T21:13:54.789Z,1
2023-04-30T21:23:54.807Z,1
2023-04-30T21:33:54.626Z,1
2023-04-30T21:43:54.537Z,1
2023-04-30T21:53:54.454Z,1
2023-04-30T22:03:54.407Z,1
2023-04-30T22:13:54.232Z,1
2023-04-30T22:23:54.170Z,1
2023-04-30T22:33:54.146Z,1
2023-04-30T22:43:54.242Z,1
2023-04-30T22:53:54.024Z,1
2023-04-30T23:03:53.894Z,1
2023-04-30T23:13:53.859Z,1
2023-04-30T23:23:53.800Z,1
2023-04-30T23:33:53.654Z,99
2023-04-30T23:43:53.653Z,99
2023-04-30T23:53:53.507Z,99
